Time;durP1;ratioP1;P1;durP2;ratioP2;P2;SDS_P1;SDS_P2;PMS_P1;PMS_P2;Temp;Humidity;BMP_temperature;BMP_pressure;BME280_temperature;BME280_humidity;BME280_pressure;Samples;Min_cycle;Max_cycle;Signal;HPM_P1;HPM_P2
2022/02/27 00:01:43;;;;;;;31.13;11.52;;;-1.30;99.90;;;;;;5025000;28;20305;-76
2022/02/27 00:04:10;;;;;;;22.52;8.95;;;-1.20;99.90;;;;;;5025009;28;20184;-77
2022/02/27 00:06:37;;;;;;;37.50;15.80;;;-1.30;99.90;;;;;;5042925;28;20128;-76
2022/02/27 00:09:03;;;;;;;33.22;14.77;;;-1.40;99.90;;;;;;5014881;28;20465;-76
2022/02/27 00:11:30;;;;;;;42.95;16.75;;;-1.60;99.90;;;;;;5028512;28;20061;-76
2022/02/27 00:13:57;;;;;;;26.50;13.05;;;-1.60;99.90;;;;;;5037927;28;20084;-76
2022/02/27 00:16:24;;;;;;;33.70;13.95;;;-1.60;99.90;;;;;;5060333;28;20060;-76
2022/02/27 00:18:50;;;;;;;31.65;15.57;;;-1.80;99.90;;;;;;5044490;28;20113;-76
2022/02/27 00:21:17;;;;;;;30.23;14.05;;;-1.90;99.90;;;;;;5062244;28;20122;-76
2022/02/27 00:23:44;;;;;;;37.03;15.73;;;-1.90;99.90;;;;;;5050947;28;20098;-76
2022/02/27 00:26:10;;;;;;;22.35;11.60;;;-2.00;99.90;;;;;;5008107;28;20095;-76
2022/02/27 00:28:37;;;;;;;37.47;14.60;;;-2.00;99.90;;;;;;5042972;28;20103;-77
2022/02/27 00:31:08;;;;;;;29.05;14.45;;;-1.90;99.90;;;;;;5008240;28;20051;-76
2022/02/27 00:33:36;;;;;;;36.40;17.55;;;-1.70;99.90;;;;;;5024566;28;20346;-76
2022/02/27 00:36:04;;;;;;;45.97;19.73;;;-1.60;99.90;;;;;;5024092;28;20527;-76
2022/02/27 00:38:30;;;;;;;36.05;14.15;;;-1.60;99.90;;;;;;5029456;28;20057;-76
2022/02/27 00:40:57;;;;;;;24.48;12.02;;;-1.50;99.90;;;;;;5035954;28;20075;-76
2022/02/27 00:43:24;;;;;;;34.88;11.27;;;-1.60;99.90;;;;;;5049501;28;20519;-76
2022/02/27 00:45:50;;;;;;;34.63;11.43;;;-1.50;99.90;;;;;;5012969;28;20110;-77
2022/02/27 00:48:17;;;;;;;30.88;12.65;;;-1.50;99.90;;;;;;5033117;28;20726;-77
2022/02/27 00:50:44;;;;;;;33.45;13.13;;;-1.60;99.90;;;;;;5041062;28;20053;-78
2022/02/27 00:53:14;;;;;;;35.45;14.43;;;-1.70;99.90;;;;;;5042459;28;20067;-76
2022/02/27 00:55:41;;;;;;;34.67;13.07;;;-1.70;99.90;;;;;;5027243;28;20103;-76
2022/02/27 00:58:08;;;;;;;24.83;12.48;;;-1.70;99.90;;;;;;5026917;28;20049;-76
2022/02/27 01:00:39;;;;;;;30.77;11.98;;;-1.80;99.90;;;;;;5015544;28;20660;-76
2022/02/27 01:03:07;;;;;;;25.80;11.07;;;-1.90;99.90;;;;;;5046930;28;20120;-76
2022/02/27 01:05:34;;;;;;;30.92;11.13;;;-1.90;99.90;;;;;;5064011;28;20052;-76
2022/02/27 01:08:01;;;;;;;26.08;12.02;;;-1.90;99.90;;;;;;5061703;28;20037;-76
2022/02/27 01:10:29;;;;;;;22.20;11.57;;;-1.90;99.90;;;;;;5039568;28;20512;-76
2022/02/27 01:12:55;;;;;;;27.05;11.30;;;-1.80;99.90;;;;;;5047105;28;20057;-78
2022/02/27 01:15:22;;;;;;;30.33;11.32;;;-1.60;99.90;;;;;;5036525;28;20369;-78
2022/02/27 01:17:50;;;;;;;40.15;9.90;;;-1.40;99.90;;;;;;5024453;28;20044;-76
2022/02/27 01:20:17;;;;;;;30.85;9.35;;;-1.30;99.90;;;;;;5024675;28;20041;-77
2022/02/27 01:22:44;;;;;;;21.25;8.48;;;-1.10;99.90;;;;;;5026191;28;20397;-78
2022/02/27 01:25:11;;;;;;;27.85;8.63;;;-1.00;99.90;;;;;;5042176;28;20521;-77
2022/02/27 01:27:38;;;;;;;27.45;8.32;;;-0.90;99.90;;;;;;5024572;28;20050;-77
2022/02/27 01:30:07;;;;;;;32.00;8.95;;;-0.70;99.90;;;;;;5024570;28;20037;-77
2022/02/27 01:32:34;;;;;;;30.48;9.43;;;-0.40;99.90;;;;;;5024792;28;20545;-78
2022/02/27 01:35:01;;;;;;;30.48;9.85;;;-0.40;99.90;;;;;;5023976;28;20052;-78
2022/02/27 01:37:27;;;;;;;27.38;10.85;;;-0.30;99.90;;;;;;5023721;28;20057;-77
2022/02/27 01:39:54;;;;;;;27.73;7.65;;;-0.30;99.90;;;;;;5033964;28;20507;-76
2022/02/27 01:42:21;;;;;;;21.17;7.82;;;-0.40;99.90;;;;;;5059986;28;20355;-76
2022/02/27 01:44:47;;;;;;;23.80;8.68;;;-0.50;99.90;;;;;;5017748;28;20053;-76
2022/02/27 01:47:14;;;;;;;23.65;9.55;;;-0.70;99.90;;;;;;5026172;28;20067;-76
2022/02/27 01:49:47;;;;;;;27.50;10.10;;;-0.90;99.90;;;;;;5003818;28;20064;-77
2022/02/27 01:52:15;;;;;;;17.30;8.07;;;-1.10;99.90;;;;;;5002911;28;20100;-76
2022/02/27 01:54:42;;;;;;;24.17;8.75;;;-1.00;99.90;;;;;;5013429;28;20515;-76
2022/02/27 01:57:12;;;;;;;24.88;9.35;;;-1.20;99.90;;;;;;5038457;28;20768;-76
2022/02/27 01:59:42;;;;;;;29.88;11.65;;;-1.30;99.90;;;;;;5022584;28;20130;-76
2022/02/27 02:02:10;;;;;;;24.48;10.57;;;-1.50;99.90;;;;;;5021666;28;20052;-76
2022/02/27 02:04:38;;;;;;;28.10;10.25;;;-1.40;99.90;;;;;;5021894;28;20263;-77
2022/02/27 02:07:08;;;;;;;22.60;10.88;;;-1.50;99.90;;;;;;5022149;28;20072;-75
2022/02/27 02:09:35;;;;;;;40.17;10.90;;;-1.60;99.90;;;;;;5030694;28;20590;-77
2022/02/27 02:12:04;;;;;;;29.25;11.13;;;-1.60;99.90;;;;;;5024158;28;20059;-79
2022/02/27 02:14:30;;;;;;;29.73;11.65;;;-1.50;99.90;;;;;;5034028;28;20037;-76
2022/02/27 02:16:58;;;;;;;35.00;10.95;;;-1.30;99.90;;;;;;5025917;28;20087;-76
2022/02/27 02:19:27;;;;;;;27.13;10.18;;;-1.20;99.90;;;;;;5023318;28;20373;-76
2022/02/27 02:22:01;;;;;;;36.65;10.57;;;-1.20;99.90;;;;;;5023495;28;20079;-76
2022/02/27 02:24:30;;;;;;;35.63;11.50;;;-1.00;99.90;;;;;;5022673;28;20513;-77
2022/02/27 02:26:57;;;;;;;29.27;10.98;;;-0.80;99.90;;;;;;5022685;28;20186;-77
2022/02/27 02:29:25;;;;;;;34.97;10.00;;;-0.60;99.90;;;;;;5023960;28;20055;-77
2022/02/27 02:31:57;;;;;;;33.92;9.10;;;-0.50;99.90;;;;;;5022534;28;20052;-77
2022/02/27 02:34:25;;;;;;;26.05;9.40;;;-0.40;99.90;;;;;;5022468;28;20144;-76
2022/02/27 02:36:54;;;;;;;28.92;10.80;;;-0.30;99.90;;;;;;5022387;28;20049;-76
2022/02/27 02:39:22;;;;;;;30.02;9.18;;;-0.20;99.90;;;;;;5029549;28;20045;-77
2022/02/27 02:41:49;;;;;;;17.33;7.93;;;-0.20;99.90;;;;;;5038429;28;20045;-76
2022/02/27 02:44:22;;;;;;;36.40;10.00;;;-0.20;99.90;;;;;;5011591;28;20057;-76
2022/02/27 02:46:49;;;;;;;26.73;10.70;;;-0.20;99.90;;;;;;5030227;28;20071;-77
2022/02/27 02:49:16;;;;;;;25.77;8.57;;;-0.30;99.90;;;;;;5003869;28;20066;-77
2022/02/27 02:51:48;;;;;;;23.50;9.68;;;-0.40;99.90;;;;;;4986122;28;20135;-77
2022/02/27 02:54:15;;;;;;;23.83;8.88;;;-0.50;99.90;;;;;;5006994;28;20052;-76
2022/02/27 02:56:42;;;;;;;22.92;8.50;;;-0.40;99.90;;;;;;5022234;28;20136;-77
2022/02/27 02:59:09;;;;;;;30.48;9.23;;;-0.40;99.90;;;;;;5022285;28;20321;-76
2022/02/27 03:01:36;;;;;;;26.05;9.55;;;-0.40;99.90;;;;;;5038572;28;20346;-76
2022/02/27 03:04:04;;;;;;;26.45;8.88;;;-0.30;99.90;;;;;;5022350;28;20048;-76
2022/02/27 03:06:32;;;;;;;25.08;8.80;;;-0.20;99.90;;;;;;5005011;28;20142;-76
2022/02/27 03:09:03;;;;;;;24.30;9.35;;;-0.10;99.90;;;;;;5046965;28;20052;-77
2022/02/27 03:11:30;;;;;;;19.45;8.50;;;-0.10;99.90;;;;;;5043465;28;20456;-77
2022/02/27 03:14:01;;;;;;;21.40;8.75;;;-0.10;99.90;;;;;;5021415;28;20049;-76
2022/02/27 03:16:29;;;;;;;20.40;8.68;;;0.00;99.90;;;;;;5028679;28;20477;-76
2022/02/27 03:18:57;;;;;;;17.45;9.43;;;0.00;99.90;;;;;;5022113;28;20049;-76
2022/02/27 03:21:23;;;;;;;24.33;8.40;;;-0.20;99.90;;;;;;5004727;28;20570;-75
2022/02/27 03:23:52;;;;;;;24.80;9.50;;;-0.40;99.90;;;;;;5022518;28;20053;-75
2022/02/27 03:26:21;;;;;;;26.63;9.15;;;-0.50;99.90;;;;;;5025346;28;20098;-75
2022/02/27 03:28:49;;;;;;;24.83;8.85;;;-0.50;99.90;;;;;;5009659;28;20139;-75
2022/02/27 03:31:16;;;;;;;21.33;9.18;;;-0.50;99.90;;;;;;5043595;28;20069;-76
2022/02/27 03:33:43;;;;;;;19.40;7.97;;;-0.40;99.90;;;;;;5025992;28;20106;-76
2022/02/27 03:36:10;;;;;;;32.47;9.40;;;-0.40;99.90;;;;;;5024815;28;20525;-76
2022/02/27 03:38:37;;;;;;;36.47;9.68;;;-0.50;99.90;;;;;;5031825;28;20102;-75
2022/02/27 03:41:04;;;;;;;24.00;9.25;;;-0.70;99.90;;;;;;5036533;28;20365;-76
2022/02/27 03:43:31;;;;;;;27.67;8.55;;;-0.80;99.90;;;;;;5060642;28;20052;-76
2022/02/27 03:45:58;;;;;;;21.85;8.88;;;-0.80;99.90;;;;;;5054735;28;20063;-76
2022/02/27 03:48:25;;;;;;;25.10;9.00;;;-0.80;99.90;;;;;;5049743;28;20049;-75
2022/02/27 03:50:52;;;;;;;23.58;8.93;;;-0.80;99.90;;;;;;5042345;28;20387;-78
2022/02/27 03:53:18;;;;;;;21.80;10.35;;;-0.60;99.90;;;;;;5008829;28;20114;-77
2022/02/27 03:55:45;;;;;;;25.85;9.55;;;-0.90;99.90;;;;;;5043110;28;20458;-78
2022/02/27 03:58:12;;;;;;;22.10;9.30;;;-1.00;99.90;;;;;;5024371;28;20040;-77
2022/02/27 04:00:39;;;;;;;24.30;9.95;;;-1.00;99.90;;;;;;5023033;28;20575;-77
2022/02/27 04:03:08;;;;;;;26.50;10.68;;;-1.10;99.90;;;;;;5043821;28;20099;-78
2022/02/27 04:05:36;;;;;;;24.88;10.48;;;-1.00;99.90;;;;;;5029680;28;20511;-77
2022/02/27 04:08:04;;;;;;;22.67;9.05;;;-1.00;99.90;;;;;;5015718;28;20183;-78
2022/02/27 04:10:31;;;;;;;22.48;8.70;;;-0.60;99.90;;;;;;5032280;28;20511;-77
2022/02/27 04:12:58;;;;;;;18.25;7.70;;;-0.40;99.90;;;;;;5061493;28;20087;-77
2022/02/27 04:15:24;;;;;;;23.95;7.68;;;-0.20;99.90;;;;;;5054085;28;20048;-77
2022/02/27 04:17:51;;;;;;;17.33;7.10;;;-0.10;99.90;;;;;;5026590;28;20567;-77
2022/02/27 04:20:19;;;;;;;21.02;8.30;;;0.00;99.90;;;;;;5042216;28;20079;-78
2022/02/27 04:22:46;;;;;;;21.58;7.47;;;0.00;99.90;;;;;;5042266;28;20134;-77
2022/02/27 04:25:12;;;;;;;17.33;7.57;;;0.10;99.90;;;;;;5041945;28;20118;-77
2022/02/27 04:27:39;;;;;;;19.23;8.57;;;0.10;99.90;;;;;;5023415;28;20065;-77
2022/02/27 04:30:07;;;;;;;32.60;9.68;;;0.00;99.90;;;;;;5041824;28;20099;-77
2022/02/27 04:32:34;;;;;;;19.60;8.05;;;-0.10;99.90;;;;;;5008140;28;20068;-76
2022/02/27 04:35:02;;;;;;;16.95;7.10;;;0.00;99.90;;;;;;5023047;28;20510;-76
2022/02/27 04:37:28;;;;;;;19.98;7.80;;;0.00;99.90;;;;;;5041728;28;20136;-76
2022/02/27 04:39:55;;;;;;;18.13;8.20;;;0.10;99.90;;;;;;5033415;28;20045;-76
2022/02/27 04:42:22;;;;;;;16.42;7.63;;;0.20;99.90;;;;;;5042277;28;20076;-76
2022/02/27 04:44:48;;;;;;;28.65;8.07;;;0.20;99.90;;;;;;5034617;28;20072;-76
2022/02/27 04:47:15;;;;;;;14.82;6.72;;;0.20;99.90;;;;;;5045018;28;20144;-76
2022/02/27 04:49:42;;;;;;;17.85;6.68;;;0.40;99.90;;;;;;5004056;28;20278;-76
2022/02/27 04:52:11;;;;;;;10.48;6.35;;;0.30;99.90;;;;;;5004062;28;20037;-76
2022/02/27 04:54:38;;;;;;;16.48;7.18;;;0.40;99.90;;;;;;5003329;28;20080;-76
2022/02/27 04:57:04;;;;;;;16.92;7.45;;;0.40;99.90;;;;;;5039458;22;20064;-75
2022/02/27 04:59:34;;;;;;;13.43;7.72;;;0.50;99.90;;;;;;5012493;28;20103;-73
2022/02/27 05:02:01;;;;;;;15.48;7.25;;;0.40;99.90;;;;;;5011603;28;20498;-74
2022/02/27 05:04:28;;;;;;;14.27;6.50;;;0.40;99.90;;;;;;4995036;28;20553;-75
2022/02/27 05:06:54;;;;;;;15.07;6.85;;;0.40;99.90;;;;;;5004896;28;20670;-74
2022/02/27 05:09:21;;;;;;;21.48;7.97;;;0.50;99.90;;;;;;4994018;28;20095;-75
2022/02/27 05:11:48;;;;;;;14.80;7.53;;;0.50;99.90;;;;;;5012632;28;20049;-74
2022/02/27 05:14:15;;;;;;;13.82;7.55;;;0.50;99.90;;;;;;4990863;28;20660;-76
2022/02/27 05:16:42;;;;;;;17.70;7.47;;;0.50;99.90;;;;;;4990760;28;20056;-76
2022/02/27 05:19:09;;;;;;;28.00;8.75;;;0.50;99.90;;;;;;4993002;28;20064;-76
2022/02/27 05:21:36;;;;;;;15.68;8.00;;;0.50;99.90;;;;;;5012145;28;20218;-76
2022/02/27 05:24:03;;;;;;;14.68;7.82;;;0.50;99.90;;;;;;4995328;28;20506;-75
2022/02/27 05:26:30;;;;;;;13.85;8.68;;;0.50;99.90;;;;;;4994629;28;20056;-76
2022/02/27 05:28:57;;;;;;;12.77;8.05;;;0.50;99.90;;;;;;5010351;28;20068;-75
2022/02/27 05:31:24;;;;;;;18.88;8.48;;;0.50;99.90;;;;;;4994288;28;20042;-75
2022/02/27 05:33:51;;;;;;;19.30;7.95;;;0.60;99.90;;;;;;4993819;28;20050;-76
2022/02/27 05:36:18;;;;;;;20.30;8.35;;;0.50;99.90;;;;;;4993935;28;20057;-76
2022/02/27 05:38:46;;;;;;;14.55;7.97;;;0.50;99.90;;;;;;4995444;28;20533;-76
2022/02/27 05:41:13;;;;;;;14.02;6.85;;;0.50;99.90;;;;;;5011853;28;20081;-73
2022/02/27 05:43:41;;;;;;;12.80;8.15;;;0.50;99.90;;;;;;5010064;28;20873;-74
2022/02/27 05:46:08;;;;;;;19.42;8.45;;;0.50;99.90;;;;;;4993263;28;20033;-73
2022/02/27 05:48:35;;;;;;;19.30;6.80;;;0.50;99.90;;;;;;4964268;28;20034;-75
2022/02/27 05:51:02;;;;;;;21.63;8.48;;;0.50;99.90;;;;;;4971810;28;20041;-75
2022/02/27 05:53:29;;;;;;;20.45;8.80;;;0.50;99.90;;;;;;4993471;28;20124;-77
2022/02/27 05:55:57;;;;;;;15.35;8.43;;;0.50;99.90;;;;;;4975888;28;20046;-73
2022/02/27 05:58:25;;;;;;;19.10;8.85;;;0.50;99.90;;;;;;4977440;28;20298;-74
2022/02/27 06:00:53;;;;;;;16.10;8.13;;;0.50;99.90;;;;;;5010990;28;20041;-73
2022/02/27 06:03:20;;;;;;;17.85;8.23;;;0.50;99.90;;;;;;4978478;28;20073;-75
2022/02/27 06:05:47;;;;;;;12.25;8.50;;;0.50;99.90;;;;;;5012105;28;20065;-73
2022/02/27 06:08:13;;;;;;;17.92;8.73;;;0.50;99.90;;;;;;4993336;28;20291;-75
2022/02/27 06:10:40;;;;;;;21.77;9.45;;;0.40;99.90;;;;;;4991914;28;20201;-73
2022/02/27 06:13:07;;;;;;;21.88;8.57;;;0.40;99.90;;;;;;4977885;28;20045;-74
2022/02/27 06:15:34;;;;;;;15.95;10.10;;;0.40;99.90;;;;;;4974072;28;20302;-75
2022/02/27 06:18:01;;;;;;;20.40;10.80;;;0.30;99.90;;;;;;4977482;28;20137;-73
2022/02/27 06:20:28;;;;;;;22.13;12.18;;;0.30;99.90;;;;;;4993350;28;20323;-74
2022/02/27 06:22:55;;;;;;;21.40;11.10;;;0.20;99.90;;;;;;4991902;28;20057;-72
2022/02/27 06:25:22;;;;;;;27.02;12.27;;;0.00;99.90;;;;;;5012004;28;20108;-74
2022/02/27 06:27:49;;;;;;;29.60;13.02;;;-0.10;99.90;;;;;;5011996;28;20045;-74
2022/02/27 06:30:21;;;;;;;28.52;12.80;;;-0.10;99.90;;;;;;4977841;28;20059;-74
2022/02/27 06:32:49;;;;;;;22.77;12.77;;;-0.30;99.90;;;;;;4994293;28;20049;-74
2022/02/27 06:35:22;;;;;;;18.70;12.98;;;-0.40;99.90;;;;;;5017665;28;20041;-73
2022/02/27 06:37:52;;;;;;;24.55;13.32;;;-0.60;99.90;;;;;;5016920;28;20053;-73
2022/02/27 06:40:20;;;;;;;21.98;12.85;;;-0.60;99.90;;;;;;4995454;28;20409;-74
2022/02/27 06:42:47;;;;;;;33.78;12.70;;;-0.60;99.90;;;;;;5010407;28;20607;-73
2022/02/27 06:45:17;;;;;;;26.33;11.95;;;-0.40;99.90;;;;;;4993468;28;20084;-74
2022/02/27 06:47:44;;;;;;;21.75;11.52;;;-0.50;99.90;;;;;;4999505;28;20449;-73
2022/02/27 06:50:11;;;;;;;23.50;13.68;;;-0.50;99.90;;;;;;4993097;28;20052;-75
2022/02/27 06:52:39;;;;;;;26.20;15.35;;;-0.50;99.90;;;;;;4992203;28;20313;-74
2022/02/27 06:55:09;;;;;;;26.27;13.60;;;-0.50;99.90;;;;;;4993041;28;20081;-74
2022/02/27 06:57:36;;;;;;;23.67;15.77;;;-0.50;99.90;;;;;;5013688;28;20052;-74
2022/02/27 07:00:06;;;;;;;33.55;15.32;;;-0.50;99.90;;;;;;5014889;28;20122;-75
2022/02/27 07:02:33;;;;;;;28.63;12.32;;;-0.50;99.90;;;;;;4994084;28;20526;-73
2022/02/27 07:05:00;;;;;;;27.15;13.80;;;-0.40;99.90;;;;;;4981248;28;20064;-74
2022/02/27 07:07:27;;;;;;;23.52;12.15;;;-0.50;99.90;;;;;;4997424;28;20053;-73
2022/02/27 07:10:00;;;;;;;32.15;13.20;;;-0.50;99.90;;;;;;4996388;28;20163;-73
2022/02/27 07:12:31;;;;;;;33.60;12.50;;;-0.40;99.90;;;;;;4994264;28;20053;-73
2022/02/27 07:14:58;;;;;;;22.30;12.45;;;-0.20;99.90;;;;;;4990558;28;20046;-73
2022/02/27 07:17:26;;;;;;;24.45;12.57;;;-0.10;99.90;;;;;;4976780;28;20042;-73
2022/02/27 07:19:53;;;;;;;27.30;12.73;;;-0.10;99.90;;;;;;4978324;28;20065;-73
2022/02/27 07:22:21;;;;;;;22.45;11.32;;;0.00;99.90;;;;;;4975899;28;20861;-74
2022/02/27 07:24:48;;;;;;;22.60;10.75;;;0.20;99.90;;;;;;4976226;28;20061;-75
2022/02/27 07:27:16;;;;;;;25.73;11.50;;;0.30;99.90;;;;;;4996088;28;20069;-72
2022/02/27 07:29:43;;;;;;;22.42;11.35;;;0.40;99.90;;;;;;4992954;28;20054;-73
2022/02/27 07:32:14;;;;;;;23.13;11.07;;;0.60;99.90;;;;;;4994365;28;20038;-74
2022/02/27 07:34:42;;;;;;;24.38;11.10;;;0.60;99.90;;;;;;4975143;28;20053;-74
2022/02/27 07:37:09;;;;;;;21.85;10.20;;;0.70;99.90;;;;;;4975252;28;20069;-74
2022/02/27 07:39:36;;;;;;;26.95;11.40;;;0.70;99.90;;;;;;4974172;28;20049;-75
2022/02/27 07:42:03;;;;;;;19.25;11.10;;;0.80;99.90;;;;;;4975321;28;20046;-73
2022/02/27 07:44:30;;;;;;;19.73;10.27;;;0.90;99.90;;;;;;4990890;28;20042;-76
2022/02/27 07:46:57;;;;;;;26.92;12.40;;;0.90;99.90;;;;;;4990635;28;20042;-77
2022/02/27 07:49:24;;;;;;;24.05;10.68;;;1.00;99.90;;;;;;4991314;28;20241;-74
2022/02/27 07:51:52;;;;;;;21.08;10.05;;;1.10;99.90;;;;;;4978235;28;20096;-74
2022/02/27 07:54:19;;;;;;;20.60;10.35;;;1.10;99.90;;;;;;4978313;28;20341;-78
2022/02/27 07:56:46;;;;;;;30.40;12.98;;;1.20;99.90;;;;;;4993581;28;20046;-76
2022/02/27 07:59:13;;;;;;;18.38;11.52;;;1.20;99.90;;;;;;4997021;28;20240;-74
2022/02/27 08:01:42;;;;;;;27.88;12.18;;;1.30;99.90;;;;;;4995042;28;20049;-75
2022/02/27 08:04:09;;;;;;;26.48;12.13;;;1.30;99.90;;;;;;4996006;28;20211;-77
2022/02/27 08:06:36;;;;;;;18.08;11.02;;;1.40;99.90;;;;;;4994021;28;20064;-75
2022/02/27 08:09:05;;;;;;;21.38;12.38;;;1.40;99.90;;;;;;4993304;28;20425;-75
2022/02/27 08:11:32;;;;;;;28.65;12.63;;;1.50;99.90;;;;;;4996166;28;20073;-73
2022/02/27 08:14:00;;;;;;;20.02;11.10;;;1.50;99.90;;;;;;4996522;28;20050;-75
2022/02/27 08:16:27;;;;;;;23.25;11.43;;;1.60;99.90;;;;;;4990463;28;20722;-77
2022/02/27 08:18:54;;;;;;;21.67;13.55;;;1.70;99.90;;;;;;4976374;28;20046;-76
2022/02/27 08:21:21;;;;;;;25.08;12.77;;;1.70;99.90;;;;;;4997684;28;20131;-75
2022/02/27 08:23:47;;;;;;;17.88;11.50;;;1.70;99.90;;;;;;5015217;28;20468;-79
2022/02/27 08:26:14;;;;;;;26.90;14.32;;;1.80;99.90;;;;;;5013312;28;20356;-76
2022/02/27 08:28:41;;;;;;;21.75;14.50;;;2.00;99.90;;;;;;5012957;28;20233;-75
2022/02/27 08:31:08;;;;;;;19.20;16.30;;;2.20;99.90;;;;;;5009369;28;20119;-74
2022/02/27 08:33:36;;;;;;;25.80;17.25;;;2.40;99.90;;;;;;4994484;28;20057;-76
2022/02/27 08:36:06;;;;;;;21.02;17.40;;;2.60;99.90;;;;;;4995326;28;20419;-78
2022/02/27 08:38:33;;;;;;;23.52;16.38;;;2.80;99.90;;;;;;4995183;28;20050;-75
2022/02/27 08:41:00;;;;;;;21.05;16.50;;;2.80;99.90;;;;;;4993372;28;20696;-76
2022/02/27 08:43:27;;;;;;;25.83;22.33;;;3.00;99.90;;;;;;4992935;28;20104;-76
2022/02/27 08:45:54;;;;;;;25.77;23.40;;;2.90;99.90;;;;;;5000506;28;20054;-75
2022/02/27 08:48:23;;;;;;;26.75;23.05;;;3.10;99.90;;;;;;4994939;28;20140;-76
2022/02/27 08:50:50;;;;;;;26.00;22.80;;;3.40;99.90;;;;;;4987697;28;20419;-74
2022/02/27 08:53:16;;;;;;;26.88;24.35;;;3.30;99.90;;;;;;4988176;28;20698;-76
2022/02/27 08:55:43;;;;;;;26.98;24.25;;;3.30;99.90;;;;;;4973033;28;20582;-76
2022/02/27 08:58:10;;;;;;;26.58;24.10;;;3.30;99.90;;;;;;4978796;28;20144;-78
2022/02/27 09:00:37;;;;;;;26.45;23.83;;;3.40;99.90;;;;;;5012365;28;20267;-76
2022/02/27 09:03:04;;;;;;;27.90;25.33;;;3.50;99.90;;;;;;4986812;28;20057;-78
2022/02/27 09:05:32;;;;;;;26.98;24.85;;;3.60;99.90;;;;;;4973033;28;20116;-73
2022/02/27 09:08:01;;;;;;;24.77;22.67;;;3.50;99.90;;;;;;4995086;28;20443;-76
2022/02/27 09:10:28;;;;;;;30.65;27.90;;;3.60;99.90;;;;;;5000320;28;20049;-73
2022/02/27 09:12:55;;;;;;;25.20;23.00;;;3.60;99.90;;;;;;4995719;28;20537;-72
2022/02/27 09:15:22;;;;;;;27.73;25.63;;;3.70;99.90;;;;;;4991025;28;20042;-73
2022/02/27 09:17:50;;;;;;;28.15;25.67;;;3.80;99.90;;;;;;4989224;28;20057;-75
2022/02/27 09:20:17;;;;;;;28.67;25.55;;;3.80;99.90;;;;;;4993544;28;20058;-74
2022/02/27 09:22:44;;;;;;;26.90;24.52;;;4.00;99.90;;;;;;4990055;28;20050;-75
2022/02/27 09:25:11;;;;;;;24.75;23.10;;;4.10;99.90;;;;;;4989906;28;20129;-76
2022/02/27 09:27:57;;;;;;;26.55;24.27;;;4.10;99.90;;;;;;4997941;28;20460;-74
2022/02/27 09:30:24;;;;;;;26.60;24.70;;;4.20;99.90;;;;;;4993202;28;20107;-80
2022/02/27 09:32:51;;;;;;;28.20;25.90;;;4.30;99.90;;;;;;4975990;28;20042;-76
2022/02/27 09:35:23;;;;;;;27.33;24.95;;;4.40;99.90;;;;;;4976631;28;20046;-78
2022/02/27 09:37:52;;;;;;;25.50;23.37;;;4.30;99.90;;;;;;4980076;28;20453;-78
2022/02/27 09:40:20;;;;;;;27.23;25.17;;;4.40;99.90;;;;;;4994529;28;20041;-77
2022/02/27 09:42:47;;;;;;;28.58;25.52;;;4.40;99.90;;;;;;4996000;28;20060;-77
2022/02/27 09:45:15;;;;;;;26.23;23.92;;;4.30;99.90;;;;;;4992594;28;20588;-76
2022/02/27 09:47:42;;;;;;;26.38;24.25;;;4.30;99.90;;;;;;4949265;28;20690;-76
2022/02/27 09:50:09;;;;;;;27.55;25.00;;;4.40;99.90;;;;;;4984427;28;20103;-75
2022/02/27 09:52:37;;;;;;;26.35;24.33;;;4.50;99.90;;;;;;4974509;28;20053;-76
2022/02/27 09:55:04;;;;;;;27.38;25.15;;;4.70;99.90;;;;;;4993000;28;20049;-78
2022/02/27 09:57:34;;;;;;;27.05;25.08;;;4.70;99.90;;;;;;4998180;28;20051;-74
2022/02/27 10:00:03;;;;;;;29.52;26.48;;;4.90;99.90;;;;;;5016226;28;20041;-78
2022/02/27 10:03:10;;;;;;;30.33;27.23;;;5.00;99.90;;;;;;5019700;28;20339;-77
2022/02/27 10:05:43;;;;;;;28.27;26.25;;;5.00;99.90;;;;;;4992323;28;20051;-75
2022/02/27 10:08:11;;;;;;;26.95;24.85;;;5.00;99.90;;;;;;5014266;28;20498;-80
2022/02/27 10:10:53;;;;;;;31.52;28.50;;;5.20;99.90;;;;;;5005854;28;20048;-77
2022/02/27 10:13:37;;;;;;;29.73;27.33;;;4.80;99.90;;;;;;5003670;28;20847;-79
2022/02/27 10:16:06;;;;;;;32.10;29.13;;;5.20;99.90;;;;;;4988907;28;20042;-74
2022/02/27 10:18:47;;;;;;;31.02;28.38;;;5.20;99.90;;;;;;5000996;28;20050;-75
2022/02/27 10:21:22;;;;;;;30.75;27.67;;;5.40;99.90;;;;;;5007904;28;20045;-77
2022/02/27 10:24:14;;;;;;;28.65;26.45;;;5.60;99.90;;;;;;5011288;28;20579;-76
2022/02/27 10:26:43;;;;;;;29.73;26.90;;;5.70;99.90;;;;;;4999339;28;20104;-75
2022/02/27 10:29:19;;;;;;;31.65;29.15;;;5.60;99.90;;;;;;4997418;28;20643;-76
2022/02/27 10:31:57;;;;;;;30.33;27.55;;;5.60;99.90;;;;;;4994133;28;20049;-76
2022/02/27 10:34:34;;;;;;;27.08;24.95;;;5.90;99.90;;;;;;5014009;28;20306;-77
2022/02/27 10:37:05;;;;;;;27.98;25.90;;;5.80;99.90;;;;;;5012652;28;20049;-76
2022/02/27 10:39:46;;;;;;;31.02;27.92;;;6.00;99.90;;;;;;5018560;28;20083;-75
2022/02/27 10:42:27;;;;;;;32.53;29.55;;;6.10;99.90;;;;;;5000947;28;20090;-75
2022/02/27 10:44:57;;;;;;;33.97;30.90;;;6.10;99.90;;;;;;5017090;28;20157;-75
2022/02/27 10:47:32;;;;;;;31.45;28.35;;;6.30;99.90;;;;;;4993010;28;20042;-76
2022/02/27 10:50:00;;;;;;;29.95;27.60;;;6.30;99.90;;;;;;4977784;28;20502;-74
2022/02/27 10:52:30;;;;;;;29.50;27.25;;;6.50;99.90;;;;;;4989478;28;20081;-74
2022/02/27 10:55:07;;;;;;;29.95;27.95;;;6.40;99.90;;;;;;4973240;28;20046;-74
2022/02/27 10:57:37;;;;;;;29.60;27.55;;;6.50;99.90;;;;;;5018377;23;20062;-75
2022/02/27 11:00:14;;;;;;;28.65;26.48;;;6.40;99.90;;;;;;5001552;28;20491;-76
2022/02/27 11:02:45;;;;;;;29.65;27.10;;;6.30;99.90;;;;;;5015710;28;20060;-75
2022/02/27 11:05:15;;;;;;;30.27;27.67;;;6.40;99.90;;;;;;5018264;28;20045;-75
2022/02/27 11:07:44;;;;;;;29.92;28.13;;;6.50;99.90;;;;;;5017117;28;20046;-75
2022/02/27 11:10:13;;;;;;;29.92;27.60;;;6.20;99.90;;;;;;5012134;28;20150;-75
2022/02/27 11:12:41;;;;;;;27.77;25.65;;;6.20;99.90;;;;;;5008598;28;20033;-75
2022/02/27 11:15:10;;;;;;;28.23;26.25;;;6.50;99.90;;;;;;5012059;28;20143;-75
2022/02/27 11:17:37;;;;;;;29.25;27.25;;;6.70;99.90;;;;;;5011478;28;20085;-76
2022/02/27 11:20:06;;;;;;;29.10;27.02;;;6.80;99.90;;;;;;5018514;28;20057;-75
2022/02/27 11:22:33;;;;;;;30.75;28.33;;;6.30;99.90;;;;;;5019389;28;20462;-75
2022/02/27 11:25:02;;;;;;;27.55;25.77;;;6.30;99.90;;;;;;5018799;28;20065;-75
2022/02/27 11:27:29;;;;;;;29.00;26.63;;;6.30;99.90;;;;;;5016295;28;20122;-75
2022/02/27 11:30:00;;;;;;;28.17;26.33;;;6.40;99.90;;;;;;5027916;28;20516;-74
2022/02/27 11:32:27;;;;;;;32.17;28.00;;;6.50;99.90;;;;;;5054423;28;20296;-74
2022/02/27 11:34:54;;;;;;;30.48;28.25;;;6.80;99.90;;;;;;5038875;28;20045;-77
2022/02/27 11:37:50;;;;;;;29.27;26.63;;;6.70;99.90;;;;;;5026508;28;20730;-77
2022/02/27 11:40:28;;;;;;;27.02;25.38;;;7.00;99.90;;;;;;5026990;28;20053;-77
2022/02/27 11:43:00;;;;;;;27.55;25.90;;;7.00;99.90;;;;;;5031116;28;20058;-77
2022/02/27 11:45:36;;;;;;;27.98;25.98;;;6.80;99.90;;;;;;5020603;28;20050;-77
2022/02/27 11:48:04;;;;;;;26.08;24.45;;;6.90;99.90;;;;;;5011833;28;20056;-77
2022/02/27 11:50:40;;;;;;;26.63;25.15;;;6.90;99.90;;;;;;5027192;28;20053;-77
2022/02/27 11:53:21;;;;;;;25.90;24.38;;;7.20;99.90;;;;;;5022131;28;20081;-77
2022/02/27 11:55:49;;;;;;;26.17;24.77;;;7.20;99.90;;;;;;5024126;28;20093;-77
2022/02/27 11:58:19;;;;;;;27.60;25.70;;;7.10;99.90;;;;;;5025738;28;20515;-77
2022/02/27 12:00:47;;;;;;;27.77;25.90;;;7.20;99.90;;;;;;5032506;28;20046;-77
2022/02/27 12:03:29;;;;;;;28.27;26.48;;;6.90;99.90;;;;;;5022348;28;20085;-77
2022/02/27 12:06:00;;;;;;;27.83;25.83;;;6.90;99.90;;;;;;5036317;28;20115;-75
2022/02/27 12:08:45;;;;;;;26.33;24.70;;;6.90;99.90;;;;;;5035195;28;20107;-74
2022/02/27 12:11:33;;;;;;;21.80;20.38;;;7.00;99.90;;;;;;5029823;28;20595;-75
2022/02/27 12:14:02;;;;;;;24.27;22.90;;;6.70;99.90;;;;;;5034444;28;20570;-74
2022/02/27 12:16:41;;;;;;;23.65;21.65;;;6.70;99.90;;;;;;5006478;28;20145;-75
2022/02/27 12:19:20;;;;;;;24.40;22.55;;;6.50;99.90;;;;;;5013274;28;20246;-76
2022/02/27 12:21:49;;;;;;;23.95;22.50;;;6.50;99.90;;;;;;5021831;28;20160;-77
2022/02/27 12:24:36;;;;;;;22.70;21.13;;;6.80;99.90;;;;;;5023064;28;20069;-77
2022/02/27 12:27:05;;;;;;;27.27;25.58;;;7.10;99.90;;;;;;5023952;28;20543;-77
2022/02/27 12:29:48;;;;;;;27.80;25.73;;;7.30;99.90;;;;;;5027297;28;20128;-77
2022/02/27 12:32:17;;;;;;;28.35;26.17;;;7.30;99.90;;;;;;5004125;28;20041;-77
2022/02/27 12:34:47;;;;;;;23.15;21.58;;;7.20;99.90;;;;;;5004063;28;20404;-74
2022/02/27 12:37:15;;;;;;;27.08;24.27;;;7.30;99.90;;;;;;4982367;28;20045;-75
2022/02/27 12:39:43;;;;;;;26.48;23.88;;;7.40;99.90;;;;;;5030929;28;20064;-77
2022/02/27 12:42:15;;;;;;;22.63;20.88;;;7.50;99.90;;;;;;5007414;28;20053;-77
2022/02/27 12:44:45;;;;;;;23.70;22.00;;;7.70;99.90;;;;;;5021224;28;20050;-77